createdAt,value
2017-11-18T00:01:20.599Z,7.53
2017-11-18T00:03:48.912Z,7.33
2017-11-18T00:06:17.200Z,5.87
2017-11-18T00:08:45.552Z,7.83
2017-11-18T00:11:13.829Z,4.87
2017-11-18T00:13:42.155Z,7.47
2017-11-18T00:16:10.447Z,4.50
2017-11-18T00:18:38.953Z,4.93
2017-11-18T00:21:07.279Z,3.87
2017-11-18T00:23:36.461Z,4.57
2017-11-18T00:26:04.989Z,3.10
2017-11-18T00:28:33.362Z,6.43
2017-11-18T00:31:01.649Z,3.90
2017-11-18T00:33:29.940Z,5.10
2017-11-18T00:35:58.529Z,3.50
2017-11-18T00:38:26.805Z,2.60
2017-11-18T00:40:55.185Z,8.80
2017-11-18T00:43:23.602Z,7.00
2017-11-18T00:45:55.298Z,5.43
2017-11-18T00:48:23.703Z,4.23
2017-11-18T00:50:52.067Z,3.10
2017-11-18T00:53:20.430Z,4.00
2017-11-18T00:55:49.651Z,4.63
2017-11-18T00:58:17.977Z,3.40
2017-11-18T01:00:46.878Z,3.80
2017-11-18T01:03:15.267Z,11.60
2017-11-18T01:05:43.591Z,3.70
2017-11-18T01:08:11.936Z,6.60
2017-11-18T01:10:40.216Z,3.60
2017-11-18T01:13:08.591Z,3.47
2017-11-18T01:15:36.873Z,9.43
2017-11-18T01:18:05.138Z,4.33
2017-11-18T01:20:33.522Z,3.50
2017-11-18T01:23:01.814Z,4.20
2017-11-18T01:25:30.092Z,3.40
2017-11-18T01:27:59.156Z,3.47
2017-11-18T01:30:27.500Z,3.03
2017-11-18T01:32:55.828Z,4.00
2017-11-18T01:35:24.154Z,3.90
2017-11-18T01:37:52.441Z,5.57
2017-11-18T01:40:20.775Z,3.20
2017-11-18T01:42:49.119Z,3.63
2017-11-18T01:45:17.434Z,5.37
2017-11-18T01:47:46.525Z,5.63
2017-11-18T01:50:15.673Z,4.13
2017-11-18T01:52:43.985Z,4.57
2017-11-18T01:55:12.298Z,3.77
2017-11-18T01:57:40.801Z,4.37
2017-11-18T02:00:09.087Z,5.30
2017-11-18T02:02:47.112Z,3.60
2017-11-18T02:05:15.489Z,3.90
2017-11-18T02:07:43.796Z,4.63
2017-11-18T02:10:12.890Z,3.30
2017-11-18T02:12:41.166Z,2.53
2017-11-18T02:15:10.265Z,4.60
2017-11-18T02:17:38.604Z,5.23
2017-11-18T02:20:07.482Z,2.17
2017-11-18T02:22:35.771Z,2.63
2017-11-18T02:25:04.089Z,3.63
2017-11-18T02:27:32.471Z,4.60
2017-11-18T02:30:01.284Z,4.33
2017-11-18T02:32:29.640Z,3.80
2017-11-18T02:34:57.762Z,4.03
2017-11-18T02:37:26.208Z,3.87
2017-11-18T02:39:54.703Z,2.27
2017-11-18T02:42:22.990Z,2.50
2017-11-18T02:44:51.309Z,2.30
2017-11-18T02:47:19.397Z,3.83
2017-11-18T02:49:48.509Z,4.50
2017-11-18T02:52:18.276Z,2.70
2017-11-18T02:54:46.555Z,5.50
2017-11-18T02:57:14.871Z,2.83
2017-11-18T02:59:43.161Z,3.93
2017-11-18T03:02:11.441Z,2.80
2017-11-18T03:04:39.754Z,2.67
2017-11-18T03:07:08.040Z,4.57
2017-11-18T03:09:36.334Z,2.40
2017-11-18T03:12:04.743Z,3.90
2017-11-18T03:14:34.076Z,3.20
2017-11-18T03:17:03.961Z,3.40
2017-11-18T03:19:32.286Z,3.70
2017-11-18T03:22:00.581Z,4.73
2017-11-18T03:24:28.904Z,6.00
2017-11-18T03:26:57.184Z,3.70
2017-11-18T03:29:25.533Z,19.53
2017-11-18T03:31:54.567Z,3.37
2017-11-18T03:34:22.958Z,2.90
2017-11-18T03:36:52.085Z,3.00
2017-11-18T03:39:21.165Z,5.00
2017-11-18T03:41:50.313Z,2.87
2017-11-18T03:44:18.626Z,4.20
2017-11-18T03:46:46.944Z,2.53
2017-11-18T03:49:16.026Z,2.70
2017-11-18T03:51:44.337Z,2.90
2017-11-18T03:54:12.611Z,9.60
2017-11-18T03:56:41.660Z,3.60
2017-11-18T03:59:10.029Z,3.17
2017-11-18T04:01:38.424Z,3.53
2017-11-18T04:04:07.567Z,3.03
2017-11-18T04:06:35.976Z,3.60
2017-11-18T04:09:04.097Z,2.57
2017-11-18T04:11:32.449Z,3.03
2017-11-18T04:14:01.607Z,1.33
2017-11-18T04:16:29.966Z,3.10
2017-11-18T04:18:58.631Z,6.33
2017-11-18T04:21:26.964Z,2.57
2017-11-18T04:23:55.290Z,2.10
2017-11-18T04:26:23.633Z,5.20
2017-11-18T04:28:52.040Z,2.70
2017-11-18T04:31:20.346Z,3.93
2017-11-18T04:33:49.558Z,2.63
2017-11-18T04:36:18.512Z,4.10
2017-11-18T04:38:47.612Z,2.30
2017-11-18T04:41:16.555Z,2.23
2017-11-18T04:43:44.959Z,4.00
2017-11-18T04:46:13.852Z,3.43
2017-11-18T04:48:42.171Z,2.80
2017-11-18T04:51:10.608Z,3.80
2017-11-18T04:53:39.789Z,4.07
2017-11-18T04:56:08.289Z,2.30
2017-11-18T04:58:37.527Z,2.13
2017-11-18T05:01:05.867Z,2.53
2017-11-18T05:03:34.186Z,1.97
2017-11-18T05:06:02.540Z,1.70
2017-11-18T05:08:32.348Z,2.23
2017-11-18T05:11:01.461Z,3.00
2017-11-18T05:13:29.799Z,3.43
2017-11-18T05:15:58.138Z,2.70
2017-11-18T05:18:26.462Z,3.00
2017-11-18T05:20:55.590Z,2.13
2017-11-18T05:23:24.646Z,2.40
2017-11-18T05:25:52.998Z,2.60
2017-11-18T05:28:21.348Z,3.07
2017-11-18T05:30:49.633Z,2.00
2017-11-18T05:33:17.898Z,1.43
2017-11-18T05:35:46.986Z,1.73
2017-11-18T05:38:14.922Z,3.33
2017-11-18T05:40:43.948Z,1.37
2017-11-18T05:43:12.252Z,1.47
2017-11-18T05:45:40.875Z,1.93
2017-11-18T05:48:09.281Z,1.80
2017-11-18T05:50:39.083Z,2.50
2017-11-18T05:53:07.383Z,3.20
2017-11-18T05:55:36.520Z,1.63
2017-11-18T05:58:04.871Z,2.33
2017-11-18T06:00:33.993Z,3.23
2017-11-18T06:03:02.351Z,2.00
2017-11-18T06:05:30.833Z,2.00
2017-11-18T06:07:59.225Z,1.40
2017-11-18T06:10:27.540Z,3.10
2017-11-18T06:12:55.865Z,1.93
2017-11-18T06:15:24.221Z,2.83
2017-11-18T06:17:53.317Z,1.93
2017-11-18T06:20:21.636Z,2.30
2017-11-18T06:22:49.973Z,3.63
2017-11-18T06:25:19.117Z,3.10
2017-11-18T06:27:47.433Z,2.40
2017-11-18T06:30:15.781Z,2.57
2017-11-18T06:32:44.115Z,2.43
2017-11-18T06:35:12.464Z,4.10
2017-11-18T06:37:40.828Z,2.20
2017-11-18T06:40:09.193Z,1.33
2017-11-18T06:42:37.538Z,1.60
2017-11-18T06:45:05.881Z,1.50
2017-11-18T06:47:34.218Z,2.03
2017-11-18T06:50:02.593Z,2.40
2017-11-18T06:52:30.944Z,2.27
2017-11-18T06:55:00.070Z,5.10
2017-11-18T06:57:28.511Z,3.73
2017-11-18T06:59:57.616Z,1.80
2017-11-18T07:02:26.716Z,3.10
2017-11-18T07:04:55.024Z,1.93
2017-11-18T07:07:23.499Z,1.37
2017-11-18T07:09:51.815Z,1.80
2017-11-18T07:12:20.255Z,2.03
2017-11-18T07:14:48.550Z,1.50
2017-11-18T07:17:16.881Z,8.20
2017-11-18T07:19:45.230Z,1.60
2017-11-18T07:22:13.538Z,2.70
2017-11-18T07:24:44.167Z,1.47
2017-11-18T07:27:12.475Z,1.93
2017-11-18T07:29:40.746Z,1.60
2017-11-18T07:32:09.101Z,1.30
2017-11-18T07:34:37.457Z,1.80
2017-11-18T07:37:06.027Z,2.00
2017-11-18T07:39:34.362Z,3.40
2017-11-18T07:42:03.440Z,2.40
2017-11-18T07:44:31.815Z,1.50
2017-11-18T07:47:00.148Z,3.33
2017-11-18T07:49:28.465Z,1.70
2017-11-18T07:51:56.773Z,1.30
2017-11-18T07:54:26.413Z,1.63
2017-11-18T07:56:54.796Z,1.80
2017-11-18T07:59:23.090Z,1.60
2017-11-18T08:01:51.462Z,3.17
2017-11-18T08:04:19.861Z,2.20
2017-11-18T08:06:49.104Z,1.30
2017-11-18T08:09:20.950Z,1.40
2017-11-18T08:11:51.419Z,2.40
2017-11-18T08:14:19.752Z,1.67
2017-11-18T08:19:34.786Z,1.87
2017-11-18T08:22:03.313Z,1.13
2017-11-18T08:24:32.493Z,3.20
2017-11-18T08:27:00.820Z,1.10
2017-11-18T08:29:29.137Z,1.43
2017-11-18T08:31:57.448Z,3.37
2017-11-18T08:34:25.813Z,1.50
2017-11-18T08:36:54.923Z,1.20
2017-11-18T08:39:23.335Z,2.63
2017-11-18T08:41:51.680Z,1.70
2017-11-18T08:44:20.062Z,2.57
2017-11-18T08:46:49.144Z,11.10
2017-11-18T08:49:17.692Z,1.53
2017-11-18T08:51:46.036Z,1.20
2017-11-18T08:54:14.476Z,1.00
2017-11-18T08:56:42.877Z,1.30
2017-11-18T08:59:11.234Z,1.20
2017-11-18T09:01:39.556Z,3.90
2017-11-18T09:04:07.854Z,1.07
2017-11-18T09:06:36.183Z,1.23
2017-11-18T09:09:04.780Z,2.20
2017-11-18T09:11:33.078Z,2.00
2017-11-18T09:14:01.395Z,3.20
2017-11-18T09:16:30.511Z,4.40
2017-11-18T09:18:58.875Z,2.93
2017-11-18T09:21:27.124Z,3.40
2017-11-18T09:23:55.476Z,2.30
2017-11-18T09:26:23.769Z,4.30
2017-11-18T09:28:53.231Z,3.63
2017-11-18T09:31:22.345Z,3.53
2017-11-18T09:33:50.723Z,2.70
2017-11-18T09:36:19.466Z,4.97
2017-11-18T09:38:47.791Z,2.90
2017-11-18T09:41:16.190Z,3.10
2017-11-18T09:43:44.616Z,5.43
2017-11-18T09:46:14.173Z,4.33
2017-11-18T09:48:42.553Z,3.00
2017-11-18T09:51:10.899Z,5.00
2017-11-18T09:53:39.277Z,4.00
2017-11-18T09:56:08.376Z,4.20
2017-11-18T09:58:37.274Z,2.47
2017-11-18T10:01:05.674Z,2.40
2017-11-18T10:03:34.007Z,4.30
2017-11-18T10:06:02.298Z,3.83
2017-11-18T10:08:31.393Z,3.10
2017-11-18T10:11:00.284Z,5.03
2017-11-18T10:13:28.684Z,5.30
2017-11-18T10:15:57.071Z,5.00
2017-11-18T10:18:25.398Z,8.90
2017-11-18T10:20:53.691Z,8.23
2017-11-18T10:23:22.692Z,12.63
2017-11-18T10:25:50.966Z,4.30
2017-11-18T10:28:20.041Z,5.70
2017-11-18T10:30:48.678Z,4.40
2017-11-18T10:33:17.003Z,4.93
2017-11-18T10:35:46.301Z,11.13
2017-11-18T10:38:14.647Z,23.20
2017-11-18T10:40:43.039Z,3.20
2017-11-18T10:43:11.366Z,4.50
2017-11-18T10:45:39.747Z,2.23
2017-11-18T10:48:08.113Z,5.10
2017-11-18T10:50:37.198Z,6.27
2017-11-18T10:53:06.324Z,6.87
2017-11-18T10:55:34.683Z,5.70
2017-11-18T10:58:03.372Z,11.20
2017-11-18T11:00:31.748Z,6.90
2017-11-18T11:03:00.047Z,4.63
2017-11-18T11:05:28.330Z,9.70
2017-11-18T11:07:56.683Z,4.67
2017-11-18T11:10:25.034Z,14.13
2017-11-18T11:12:53.377Z,12.93
2017-11-18T11:15:21.750Z,14.60
2017-11-18T11:17:50.914Z,12.60
2017-11-18T11:20:21.706Z,11.77
2017-11-18T11:22:50.094Z,11.33
2017-11-18T11:25:19.992Z,5.73
2017-11-18T11:27:48.161Z,6.63
2017-11-18T11:30:18.745Z,6.63
2017-11-18T11:32:49.875Z,9.37
2017-11-18T11:35:18.410Z,16.60
2017-11-18T11:37:46.931Z,12.03
2017-11-18T11:40:15.338Z,19.47
2017-11-18T11:42:43.877Z,17.73
2017-11-18T11:45:12.184Z,7.10
2017-11-18T11:47:40.904Z,13.23
2017-11-18T11:50:09.938Z,8.33
2017-11-18T11:52:38.290Z,8.63
2017-11-18T11:55:06.475Z,9.33
2017-11-18T11:57:34.933Z,9.47
2017-11-18T12:00:03.289Z,11.27
2017-11-18T12:02:31.630Z,11.10
2017-11-18T12:05:00.999Z,6.47
2017-11-18T12:07:29.356Z,13.93
2017-11-18T12:09:58.602Z,5.93
2017-11-18T12:12:27.672Z,8.40
2017-11-18T12:14:56.127Z,10.03
2017-11-18T12:17:24.245Z,9.03
2017-11-18T12:19:52.603Z,9.13
2017-11-18T12:22:21.014Z,9.60
2017-11-18T12:24:49.369Z,12.53
2017-11-18T12:27:17.669Z,9.37
2017-11-18T12:29:46.089Z,8.70
2017-11-18T12:32:15.245Z,10.10
2017-11-18T12:34:43.688Z,5.03
2017-11-18T12:37:12.015Z,6.27
2017-11-18T12:39:40.315Z,5.17
2017-11-18T12:42:08.716Z,6.77
2017-11-18T12:44:37.025Z,8.27
2017-11-18T12:47:05.429Z,5.47
2017-11-18T12:49:33.740Z,5.47
2017-11-18T12:52:02.059Z,3.17
2017-11-18T12:54:33.529Z,3.17
2017-11-18T12:57:01.798Z,4.23
2017-11-18T12:59:30.088Z,6.43
2017-11-18T13:01:58.411Z,5.63
2017-11-18T13:04:27.511Z,9.60
2017-11-18T13:06:56.556Z,3.80
2017-11-18T13:09:25.232Z,7.77
2017-11-18T13:11:53.510Z,7.23
2017-11-18T13:14:21.957Z,4.37
2017-11-18T13:16:50.268Z,4.60
2017-11-18T13:19:18.756Z,9.67
2017-11-18T13:21:47.211Z,9.03
2017-11-18T13:24:15.487Z,5.10
2017-11-18T13:26:43.704Z,3.20
2017-11-18T13:29:12.006Z,19.30
2017-11-18T13:31:41.101Z,8.33
2017-11-18T13:34:09.534Z,7.57
2017-11-18T13:36:37.893Z,6.83
2017-11-18T13:39:06.288Z,3.80
2017-11-18T13:41:34.693Z,2.23
2017-11-18T13:44:03.038Z,6.77
2017-11-18T13:46:32.641Z,3.80
2017-11-18T13:49:00.984Z,6.10
2017-11-18T13:51:29.973Z,4.10
2017-11-18T13:53:58.302Z,4.43
2017-11-18T13:56:26.583Z,11.67
2017-11-18T13:58:54.916Z,6.90
2017-11-18T14:01:24.034Z,5.03
2017-11-18T14:03:52.362Z,5.83
2017-11-18T14:06:20.711Z,5.90
2017-11-18T14:08:48.984Z,4.70
2017-11-18T14:11:17.286Z,6.00
2017-11-18T14:13:45.606Z,4.63
2017-11-18T14:16:13.919Z,5.90
2017-11-18T14:18:42.848Z,5.40
2017-11-18T14:21:11.358Z,3.10
2017-11-18T14:23:39.721Z,6.97
2017-11-18T14:26:08.792Z,6.63
2017-11-18T14:28:37.213Z,4.80
2017-11-18T14:31:05.524Z,4.40
2017-11-18T14:33:33.648Z,2.70
2017-11-18T14:36:01.941Z,7.67
2017-11-18T14:38:31.000Z,3.60
2017-11-18T14:40:59.317Z,8.87
2017-11-18T14:43:27.625Z,6.00
2017-11-18T14:45:55.937Z,6.40
2017-11-18T14:48:24.260Z,5.13
2017-11-18T14:50:52.772Z,3.93
2017-11-18T14:53:21.132Z,9.20
2017-11-18T14:55:49.307Z,5.97
2017-11-18T14:58:17.450Z,14.17
2017-11-18T15:00:45.594Z,20.73
2017-11-18T15:03:13.714Z,34.80
2017-11-18T15:05:41.846Z,26.67
2017-11-18T15:08:10.068Z,30.67
2017-11-18T15:10:38.187Z,28.27
2017-11-18T15:13:06.346Z,21.90
2017-11-18T15:15:34.608Z,28.90
2017-11-18T15:18:08.346Z,22.53
2017-11-18T15:20:42.066Z,26.73
2017-11-18T15:23:17.798Z,30.60
2017-11-18T15:25:51.504Z,25.43
2017-11-18T15:28:25.379Z,36.27
2017-11-18T15:30:59.239Z,47.93
2017-11-18T15:33:30.764Z,59.20
2017-11-18T15:35:59.324Z,46.43
2017-11-18T15:38:27.547Z,61.33
2017-11-18T15:40:56.445Z,72.97
2017-11-18T15:43:28.793Z,59.20
2017-11-18T15:45:57.246Z,51.73
2017-11-18T15:51:31.605Z,66.77
2017-11-18T15:54:05.274Z,77.03
2017-11-18T15:59:38.200Z,68.07
2017-11-18T16:02:11.895Z,71.30
2017-11-18T16:04:40.858Z,69.37
2017-11-18T16:07:10.452Z,65.57
2017-11-18T16:09:38.690Z,66.70
2017-11-18T16:12:07.355Z,59.70
2017-11-18T16:14:36.398Z,63.83
2017-11-18T16:17:05.488Z,49.07
2017-11-18T16:19:33.841Z,48.67
2017-11-18T16:22:02.147Z,52.83
2017-11-18T16:24:30.492Z,46.67
2017-11-18T16:26:58.595Z,49.00
2017-11-18T16:29:26.884Z,52.43
2017-11-18T16:31:55.223Z,56.43
2017-11-18T16:34:23.573Z,40.83
2017-11-18T16:36:51.851Z,51.33
2017-11-18T16:39:20.178Z,46.43
2017-11-18T16:41:48.470Z,48.87
2017-11-18T16:44:17.046Z,48.90
2017-11-18T16:46:45.369Z,53.93
2017-11-18T16:49:15.153Z,51.10
2017-11-18T16:51:44.197Z,49.97
2017-11-18T16:54:12.610Z,50.67
2017-11-18T16:56:41.024Z,63.33
2017-11-18T16:59:09.361Z,52.00
2017-11-18T17:01:37.739Z,61.83
2017-11-18T17:04:06.165Z,87.07
2017-11-18T17:06:34.514Z,91.20
2017-11-18T17:09:03.367Z,125.00
2017-11-18T17:11:31.706Z,106.10
2017-11-18T17:14:00.029Z,108.30
2017-11-18T17:16:28.318Z,109.73
2017-11-18T17:18:56.706Z,101.57
2017-11-18T17:21:24.973Z,117.87
2017-11-18T17:23:54.105Z,108.30
2017-11-18T17:26:23.161Z,126.60
2017-11-18T17:28:51.679Z,116.57
2017-11-18T17:31:21.099Z,122.67
2017-11-18T17:33:48.914Z,103.80
2017-11-18T17:36:17.347Z,109.30
2017-11-18T17:38:45.681Z,101.07
2017-11-18T17:41:13.550Z,100.37
2017-11-18T17:43:41.398Z,101.80
2017-11-18T17:46:09.726Z,93.23
2017-11-18T17:48:38.763Z,93.57
2017-11-18T17:51:07.446Z,94.70
2017-11-18T17:53:37.584Z,91.47
2017-11-18T17:56:06.569Z,83.93
2017-11-18T17:58:34.930Z,77.77
2017-11-18T18:01:03.200Z,75.53
2017-11-18T18:03:32.312Z,89.00
2017-11-18T18:06:02.905Z,81.80
2017-11-18T18:08:32.013Z,88.27
2017-11-18T18:11:00.297Z,82.60
2017-11-18T18:13:29.168Z,86.40
2017-11-18T18:16:00.253Z,81.07
2017-11-18T18:18:30.125Z,108.10
2017-11-18T18:21:00.442Z,87.90
2017-11-18T18:23:31.677Z,89.10
2017-11-18T18:26:01.942Z,83.67
2017-11-18T18:28:31.299Z,77.23
2017-11-18T18:31:00.982Z,81.03
2017-11-18T18:33:29.545Z,69.13
2017-11-18T18:35:59.905Z,74.27
2017-11-18T18:38:33.369Z,74.00
2017-11-18T18:41:03.191Z,68.57
2017-11-18T18:43:31.640Z,66.87
2017-11-18T18:46:00.208Z,55.83
2017-11-18T18:48:28.698Z,57.60
2017-11-18T18:50:57.052Z,56.33
2017-11-18T18:53:25.656Z,56.40
2017-11-18T18:55:54.806Z,58.57
2017-11-18T18:58:23.157Z,59.27
2017-11-18T19:00:51.541Z,57.30
2017-11-18T19:03:20.425Z,49.87
2017-11-18T19:05:48.810Z,49.77
2017-11-18T19:08:17.191Z,49.43
2017-11-18T19:10:45.458Z,56.63
2017-11-18T19:13:14.484Z,46.17
2017-11-18T19:15:43.209Z,54.40
2017-11-18T19:18:11.599Z,44.00
2017-11-18T19:20:39.881Z,42.10
2017-11-18T19:23:08.158Z,47.87
2017-11-18T19:25:38.412Z,40.80
2017-11-18T19:28:09.949Z,35.30
2017-11-18T19:30:39.327Z,45.37
2017-11-18T19:33:07.644Z,32.73
2017-11-18T19:35:36.772Z,31.17
2017-11-18T19:38:05.048Z,36.63
2017-11-18T19:40:34.171Z,30.87
2017-11-18T19:43:02.657Z,31.23
2017-11-18T19:45:31.179Z,36.70
2017-11-18T19:48:00.244Z,31.00
2017-11-18T19:50:28.601Z,27.10
2017-11-18T19:52:58.027Z,28.50
2017-11-18T19:55:26.383Z,27.70
2017-11-18T19:57:55.450Z,31.93
2017-11-18T20:00:24.620Z,26.27
2017-11-18T20:02:54.691Z,21.97
2017-11-18T20:05:23.089Z,21.03
2017-11-18T20:07:51.429Z,25.53
2017-11-18T20:10:19.288Z,31.33
2017-11-18T20:12:47.665Z,23.27
2017-11-18T20:15:15.994Z,22.07
2017-11-18T20:17:44.321Z,23.90
2017-11-18T20:20:12.684Z,19.40
2017-11-18T20:22:41.134Z,22.10
2017-11-18T20:25:09.415Z,21.43
2017-11-18T20:27:37.757Z,22.10
2017-11-18T20:30:06.565Z,20.40
2017-11-18T20:32:34.953Z,18.43
2017-11-18T20:35:03.231Z,19.33
2017-11-18T20:37:32.192Z,20.00
2017-11-18T20:40:00.566Z,17.63
2017-11-18T20:42:28.888Z,21.70
2017-11-18T20:44:57.223Z,19.50
2017-11-18T20:47:25.552Z,21.73
2017-11-18T20:49:53.897Z,16.00
2017-11-18T20:52:22.228Z,15.67
2017-11-18T20:54:50.506Z,17.13
2017-11-18T20:57:18.820Z,19.23
2017-11-18T20:59:48.289Z,18.37
2017-11-18T21:02:17.521Z,14.63
2017-11-18T21:04:46.010Z,13.03
2017-11-18T21:07:14.364Z,13.90
2017-11-18T21:09:42.678Z,13.03
2017-11-18T21:12:11.012Z,14.07
2017-11-18T21:14:39.523Z,13.03
2017-11-18T21:17:07.964Z,15.80
2017-11-18T21:19:36.310Z,15.90
2017-11-18T21:22:05.605Z,12.57
2017-11-18T21:24:33.959Z,11.17
2017-11-18T21:27:02.264Z,13.20
2017-11-18T21:29:30.651Z,14.60
2017-11-18T21:31:58.977Z,12.83
2017-11-18T21:34:27.257Z,11.23
2017-11-18T21:36:55.600Z,10.97
2017-11-18T21:39:23.899Z,12.33
2017-11-18T21:41:52.188Z,12.03
2017-11-18T21:44:20.523Z,13.73
2017-11-18T21:46:48.810Z,13.00
2017-11-18T21:49:17.151Z,13.70
2017-11-18T21:51:46.183Z,15.23
2017-11-18T21:54:14.502Z,11.10
2017-11-18T21:56:42.817Z,9.40
2017-11-18T21:59:11.701Z,10.20
2017-11-18T22:01:40.037Z,13.50
2017-11-18T22:04:08.312Z,11.13
2017-11-18T22:06:36.450Z,12.17
2017-11-18T22:09:04.293Z,7.77
2017-11-18T22:11:33.332Z,13.87
2017-11-18T22:14:01.632Z,9.23
2017-11-18T22:16:29.972Z,9.70
2017-11-18T22:18:58.536Z,9.37
2017-11-18T22:21:26.870Z,8.00
2017-11-18T22:23:55.180Z,9.60
2017-11-18T22:26:23.458Z,7.73
2017-11-18T22:28:52.492Z,9.33
2017-11-18T22:31:20.778Z,8.60
2017-11-18T22:33:49.034Z,9.67
2017-11-18T22:36:17.344Z,10.07
2017-11-18T22:38:45.664Z,7.73
2017-11-18T22:41:14.319Z,7.97
2017-11-18T22:43:42.642Z,11.00
2017-11-18T22:46:10.939Z,9.30
2017-11-18T22:48:39.287Z,8.00
2017-11-18T22:51:07.610Z,11.40
2017-11-18T22:53:35.960Z,11.97
2017-11-18T22:56:04.273Z,7.40
2017-11-18T22:58:34.036Z,7.37
2017-11-18T23:01:02.379Z,8.50
2017-11-18T23:03:30.717Z,8.63
2017-11-18T23:05:59.334Z,7.93
2017-11-18T23:08:29.142Z,8.03
2017-11-18T23:10:57.468Z,8.00
2017-11-18T23:13:25.747Z,9.17
2017-11-18T23:15:54.091Z,9.70
2017-11-18T23:18:22.612Z,8.50
2017-11-18T23:20:50.909Z,10.07
2017-11-18T23:23:19.245Z,10.60
2017-11-18T23:25:47.555Z,7.87
2017-11-18T23:28:15.933Z,11.17
2017-11-18T23:30:44.787Z,7.60
2017-11-18T23:33:13.100Z,9.13
2017-11-18T23:35:41.549Z,10.67
2017-11-18T23:38:10.562Z,9.30
2017-11-18T23:40:38.959Z,9.57
2017-11-18T23:43:07.299Z,8.17
2017-11-18T23:45:35.583Z,6.00
2017-11-18T23:48:04.656Z,11.40
2017-11-18T23:50:32.973Z,8.23
2017-11-18T23:53:01.479Z,6.37
2017-11-18T23:55:29.756Z,8.13
2017-11-18T23:57:58.049Z,7.80
